sensor_id;sensor_type;location;lat;lon;timestamp;P1;durP1;ratioP1;P2;durP2;ratioP2
35795;SDS011;21916;52.428;13.302;2023-02-03T00:01:57;14.95;;;5.53;;
35795;SDS011;21916;52.428;13.302;2023-02-03T00:04:23;19.67;;;4.75;;
35795;SDS011;21916;52.428;13.302;2023-02-03T00:06:49;12.27;;;4.50;;
35795;SDS011;21916;52.428;13.302;2023-02-03T00:09:15;14.43;;;4.65;;
35795;SDS011;21916;52.428;13.302;2023-02-03T00:11:44;20.08;;;4.47;;
35795;SDS011;21916;52.428;13.302;2023-02-03T00:14:10;15.65;;;4.15;;
35795;SDS011;21916;52.428;13.302;2023-02-03T00:16:36;10.30;;;3.90;;
35795;SDS011;21916;52.428;13.302;2023-02-03T00:19:02;13.20;;;4.05;;
35795;SDS011;21916;52.428;13.302;2023-02-03T00:21:28;11.85;;;4.38;;
35795;SDS011;21916;52.428;13.302;2023-02-03T00:23:56;14.52;;;4.35;;
35795;SDS011;21916;52.428;13.302;2023-02-03T00:26:22;12.68;;;3.17;;
35795;SDS011;21916;52.428;13.302;2023-02-03T00:28:50;13.07;;;3.97;;
35795;SDS011;21916;52.428;13.302;2023-02-03T00:31:17;11.80;;;4.00;;
35795;SDS011;21916;52.428;13.302;2023-02-03T00:33:45;17.10;;;4.78;;
35795;SDS011;21916;52.428;13.302;2023-02-03T00:36:11;10.77;;;3.55;;
35795;SDS011;21916;52.428;13.302;2023-02-03T00:38:37;11.93;;;3.65;;
35795;SDS011;21916;52.428;13.302;2023-02-03T00:41:03;16.98;;;4.05;;
35795;SDS011;21916;52.428;13.302;2023-02-03T00:43:29;13.00;;;4.43;;
35795;SDS011;21916;52.428;13.302;2023-02-03T00:45:55;19.42;;;4.85;;
35795;SDS011;21916;52.428;13.302;2023-02-03T00:48:21;16.20;;;4.75;;
35795;SDS011;21916;52.428;13.302;2023-02-03T00:50:47;19.05;;;4.78;;
35795;SDS011;21916;52.428;13.302;2023-02-03T00:53:13;14.88;;;4.28;;
35795;SDS011;21916;52.428;13.302;2023-02-03T00:55:41;13.55;;;4.90;;
35795;SDS011;21916;52.428;13.302;2023-02-03T00:58:10;13.55;;;4.40;;
35795;SDS011;21916;52.428;13.302;2023-02-03T01:00:36;15.57;;;5.15;;
35795;SDS011;21916;52.428;13.302;2023-02-03T01:03:02;21.58;;;5.38;;
35795;SDS011;21916;52.428;13.302;2023-02-03T01:05:28;24.08;;;5.72;;
35795;SDS011;21916;52.428;13.302;2023-02-03T01:07:54;17.35;;;5.65;;
35795;SDS011;21916;52.428;13.302;2023-02-03T01:10:20;18.33;;;6.68;;
35795;SDS011;21916;52.428;13.302;2023-02-03T01:12:46;19.15;;;5.18;;
35795;SDS011;21916;52.428;13.302;2023-02-03T01:15:12;19.52;;;6.63;;
35795;SDS011;21916;52.428;13.302;2023-02-03T01:17:38;21.63;;;7.85;;
35795;SDS011;21916;52.428;13.302;2023-02-03T01:20:04;21.67;;;6.63;;
35795;SDS011;21916;52.428;13.302;2023-02-03T01:22:30;24.42;;;7.88;;
35795;SDS011;21916;52.428;13.302;2023-02-03T01:24:56;19.48;;;6.78;;
35795;SDS011;21916;52.428;13.302;2023-02-03T01:27:22;21.20;;;7.38;;
35795;SDS011;21916;52.428;13.302;2023-02-03T01:29:48;21.08;;;8.02;;
35795;SDS011;21916;52.428;13.302;2023-02-03T01:32:14;22.02;;;8.02;;
35795;SDS011;21916;52.428;13.302;2023-02-03T01:34:40;18.88;;;7.68;;
35795;SDS011;21916;52.428;13.302;2023-02-03T01:37:05;18.02;;;8.40;;
35795;SDS011;21916;52.428;13.302;2023-02-03T01:39:31;21.30;;;8.90;;
35795;SDS011;21916;52.428;13.302;2023-02-03T01:41:58;21.35;;;8.00;;
35795;SDS011;21916;52.428;13.302;2023-02-03T01:52:43;18.95;;;7.72;;
35795;SDS011;21916;52.428;13.302;2023-02-03T01:55:13;17.33;;;7.28;;
35795;SDS011;21916;52.428;13.302;2023-02-03T01:57:44;15.35;;;7.50;;
35795;SDS011;21916;52.428;13.302;2023-02-03T02:00:16;17.10;;;7.55;;
35795;SDS011;21916;52.428;13.302;2023-02-03T02:02:43;14.82;;;7.20;;
35795;SDS011;21916;52.428;13.302;2023-02-03T02:07:51;14.35;;;6.68;;
35795;SDS011;21916;52.428;13.302;2023-02-03T02:10:19;16.73;;;6.85;;
35795;SDS011;21916;52.428;13.302;2023-02-03T02:12:46;12.45;;;6.68;;
35795;SDS011;21916;52.428;13.302;2023-02-03T02:15:12;15.32;;;6.55;;
35795;SDS011;21916;52.428;13.302;2023-02-03T02:20:31;15.75;;;6.97;;
35795;SDS011;21916;52.428;13.302;2023-02-03T02:26:22;16.75;;;8.77;;
35795;SDS011;21916;52.428;13.302;2023-02-03T02:31:59;10.68;;;7.25;;
35795;SDS011;21916;52.428;13.302;2023-02-03T02:34:55;9.38;;;5.80;;
35795;SDS011;21916;52.428;13.302;2023-02-03T02:37:40;11.63;;;5.75;;
35795;SDS011;21916;52.428;13.302;2023-02-03T02:43:19;12.35;;;6.05;;
35795;SDS011;21916;52.428;13.302;2023-02-03T02:45:49;7.68;;;4.72;;
35795;SDS011;21916;52.428;13.302;2023-02-03T02:50:45;11.02;;;6.15;;
35795;SDS011;21916;52.428;13.302;2023-02-03T02:53:13;6.43;;;4.85;;
35795;SDS011;21916;52.428;13.302;2023-02-03T02:55:41;8.23;;;4.32;;
35795;SDS011;21916;52.428;13.302;2023-02-03T02:58:10;6.50;;;4.35;;
35795;SDS011;21916;52.428;13.302;2023-02-03T03:00:39;6.32;;;4.13;;
35795;SDS011;21916;52.428;13.302;2023-02-03T03:03:06;10.95;;;4.65;;
35795;SDS011;21916;52.428;13.302;2023-02-03T03:06:03;8.77;;;4.25;;
35795;SDS011;21916;52.428;13.302;2023-02-03T03:11:09;7.30;;;4.10;;
35795;SDS011;21916;52.428;13.302;2023-02-03T03:13:40;5.13;;;3.88;;
35795;SDS011;21916;52.428;13.302;2023-02-03T03:16:09;7.32;;;4.00;;
35795;SDS011;21916;52.428;13.302;2023-02-03T03:19:12;7.15;;;4.25;;
35795;SDS011;21916;52.428;13.302;2023-02-03T03:21:41;6.30;;;4.20;;
35795;SDS011;21916;52.428;13.302;2023-02-03T03:24:12;5.65;;;3.42;;
35795;SDS011;21916;52.428;13.302;2023-02-03T03:26:46;5.20;;;3.25;;
35795;SDS011;21916;52.428;13.302;2023-02-03T03:29:41;4.53;;;3.13;;
35795;SDS011;21916;52.428;13.302;2023-02-03T03:32:11;5.88;;;2.67;;
35795;SDS011;21916;52.428;13.302;2023-02-03T03:34:38;6.05;;;3.05;;
35795;SDS011;21916;52.428;13.302;2023-02-03T03:37:07;3.40;;;2.75;;
35795;SDS011;21916;52.428;13.302;2023-02-03T03:39:41;4.75;;;2.78;;
35795;SDS011;21916;52.428;13.302;2023-02-03T03:45:23;5.07;;;3.15;;
35795;SDS011;21916;52.428;13.302;2023-02-03T03:47:58;4.07;;;2.80;;
35795;SDS011;21916;52.428;13.302;2023-02-03T03:50:42;3.40;;;2.67;;
35795;SDS011;21916;52.428;13.302;2023-02-03T03:53:22;3.85;;;2.78;;
35795;SDS011;21916;52.428;13.302;2023-02-03T03:55:51;4.18;;;3.08;;
35795;SDS011;21916;52.428;13.302;2023-02-03T03:58:23;3.58;;;2.97;;
35795;SDS011;21916;52.428;13.302;2023-02-03T04:00:57;5.53;;;3.30;;
35795;SDS011;21916;52.428;13.302;2023-02-03T04:03:37;5.25;;;3.38;;
35795;SDS011;21916;52.428;13.302;2023-02-03T04:06:11;5.78;;;3.63;;
35795;SDS011;21916;52.428;13.302;2023-02-03T04:08:38;6.75;;;4.68;;
35795;SDS011;21916;52.428;13.302;2023-02-03T04:11:04;7.15;;;4.53;;
35795;SDS011;21916;52.428;13.302;2023-02-03T04:13:30;7.00;;;5.00;;
35795;SDS011;21916;52.428;13.302;2023-02-03T04:15:56;6.80;;;4.97;;
35795;SDS011;21916;52.428;13.302;2023-02-03T04:18:22;7.25;;;4.93;;
35795;SDS011;21916;52.428;13.302;2023-02-03T04:20:49;9.38;;;5.50;;
35795;SDS011;21916;52.428;13.302;2023-02-03T04:23:16;9.05;;;6.03;;
35795;SDS011;21916;52.428;13.302;2023-02-03T04:25:42;9.27;;;6.75;;
35795;SDS011;21916;52.428;13.302;2023-02-03T04:28:08;10.90;;;6.22;;
35795;SDS011;21916;52.428;13.302;2023-02-03T04:30:34;10.63;;;6.70;;
35795;SDS011;21916;52.428;13.302;2023-02-03T04:33:00;11.23;;;7.30;;
35795;SDS011;21916;52.428;13.302;2023-02-03T04:35:26;10.85;;;7.63;;
35795;SDS011;21916;52.428;13.302;2023-02-03T04:37:53;11.48;;;8.05;;
35795;SDS011;21916;52.428;13.302;2023-02-03T04:40:19;12.80;;;8.20;;
35795;SDS011;21916;52.428;13.302;2023-02-03T04:42:44;13.82;;;8.43;;
35795;SDS011;21916;52.428;13.302;2023-02-03T04:45:10;16.08;;;9.88;;
35795;SDS011;21916;52.428;13.302;2023-02-03T04:47:37;16.40;;;10.55;;
35795;SDS011;21916;52.428;13.302;2023-02-03T04:50:03;17.77;;;10.88;;
35795;SDS011;21916;52.428;13.302;2023-02-03T04:52:29;20.58;;;11.73;;
35795;SDS011;21916;52.428;13.302;2023-02-03T04:54:55;21.45;;;13.13;;
35795;SDS011;21916;52.428;13.302;2023-02-03T04:57:22;19.52;;;12.95;;
35795;SDS011;21916;52.428;13.302;2023-02-03T04:59:48;22.70;;;13.05;;
35795;SDS011;21916;52.428;13.302;2023-02-03T05:02:14;24.50;;;12.88;;
35795;SDS011;21916;52.428;13.302;2023-02-03T05:04:40;23.42;;;14.20;;
35795;SDS011;21916;52.428;13.302;2023-02-03T05:07:05;23.25;;;13.52;;
35795;SDS011;21916;52.428;13.302;2023-02-03T05:09:31;25.45;;;13.88;;
35795;SDS011;21916;52.428;13.302;2023-02-03T05:11:57;27.17;;;15.43;;
35795;SDS011;21916;52.428;13.302;2023-02-03T05:14:23;24.95;;;15.00;;
35795;SDS011;21916;52.428;13.302;2023-02-03T05:16:49;29.25;;;16.52;;
35795;SDS011;21916;52.428;13.302;2023-02-03T05:19:15;29.20;;;16.58;;
35795;SDS011;21916;52.428;13.302;2023-02-03T05:21:40;31.05;;;17.58;;
35795;SDS011;21916;52.428;13.302;2023-02-03T05:24:06;30.38;;;16.42;;
35795;SDS011;21916;52.428;13.302;2023-02-03T05:26:33;34.17;;;18.33;;
35795;SDS011;21916;52.428;13.302;2023-02-03T05:29:00;37.92;;;20.23;;
35795;SDS011;21916;52.428;13.302;2023-02-03T05:31:26;38.65;;;19.20;;
35795;SDS011;21916;52.428;13.302;2023-02-03T05:33:52;47.75;;;21.33;;
35795;SDS011;21916;52.428;13.302;2023-02-03T05:36:17;37.60;;;20.63;;
35795;SDS011;21916;52.428;13.302;2023-02-03T05:38:43;44.55;;;21.13;;
35795;SDS011;21916;52.428;13.302;2023-02-03T05:41:10;44.90;;;19.35;;
35795;SDS011;21916;52.428;13.302;2023-02-03T05:43:57;47.47;;;22.95;;
35795;SDS011;21916;52.428;13.302;2023-02-03T05:46:23;43.92;;;23.98;;
35795;SDS011;21916;52.428;13.302;2023-02-03T05:48:49;46.35;;;25.30;;
35795;SDS011;21916;52.428;13.302;2023-02-03T05:51:15;44.97;;;24.90;;
35795;SDS011;21916;52.428;13.302;2023-02-03T05:53:40;45.70;;;22.98;;
35795;SDS011;21916;52.428;13.302;2023-02-03T05:56:06;45.00;;;23.55;;
35795;SDS011;21916;52.428;13.302;2023-02-03T05:58:32;47.28;;;24.25;;
35795;SDS011;21916;52.428;13.302;2023-02-03T06:00:58;42.85;;;23.10;;
35795;SDS011;21916;52.428;13.302;2023-02-03T06:03:24;46.40;;;24.15;;
35795;SDS011;21916;52.428;13.302;2023-02-03T06:05:50;47.70;;;25.70;;
35795;SDS011;21916;52.428;13.302;2023-02-03T06:08:16;50.70;;;25.17;;
35795;SDS011;21916;52.428;13.302;2023-02-03T06:10:41;46.63;;;24.38;;
35795;SDS011;21916;52.428;13.302;2023-02-03T06:13:11;46.15;;;25.70;;
35795;SDS011;21916;52.428;13.302;2023-02-03T06:15:39;49.65;;;22.73;;
35795;SDS011;21916;52.428;13.302;2023-02-03T06:18:06;48.30;;;25.27;;
35795;SDS011;21916;52.428;13.302;2023-02-03T06:20:33;47.40;;;23.90;;
35795;SDS011;21916;52.428;13.302;2023-02-03T06:22:59;47.15;;;23.80;;
35795;SDS011;21916;52.428;13.302;2023-02-03T06:25:25;50.28;;;23.35;;
35795;SDS011;21916;52.428;13.302;2023-02-03T06:27:51;47.60;;;23.13;;
35795;SDS011;21916;52.428;13.302;2023-02-03T06:30:20;44.63;;;24.52;;
35795;SDS011;21916;52.428;13.302;2023-02-03T06:32:48;42.53;;;22.13;;
35795;SDS011;21916;52.428;13.302;2023-02-03T06:35:14;35.30;;;19.45;;
35795;SDS011;21916;52.428;13.302;2023-02-03T06:37:40;45.38;;;23.10;;
35795;SDS011;21916;52.428;13.302;2023-02-03T06:40:06;38.75;;;22.77;;
35795;SDS011;21916;52.428;13.302;2023-02-03T06:42:33;41.92;;;23.58;;
35795;SDS011;21916;52.428;13.302;2023-02-03T06:44:59;41.80;;;23.85;;
35795;SDS011;21916;52.428;13.302;2023-02-03T06:47:25;40.15;;;21.88;;
35795;SDS011;21916;52.428;13.302;2023-02-03T06:49:51;35.25;;;21.55;;
35795;SDS011;21916;52.428;13.302;2023-02-03T06:52:17;37.70;;;21.65;;
35795;SDS011;21916;52.428;13.302;2023-02-03T06:54:46;29.38;;;15.23;;
35795;SDS011;21916;52.428;13.302;2023-02-03T06:57:12;40.28;;;21.83;;
35795;SDS011;21916;52.428;13.302;2023-02-03T06:59:38;36.08;;;21.70;;
35795;SDS011;21916;52.428;13.302;2023-02-03T07:02:03;44.97;;;23.95;;
35795;SDS011;21916;52.428;13.302;2023-02-03T07:04:29;38.30;;;20.90;;
35795;SDS011;21916;52.428;13.302;2023-02-03T07:06:55;50.42;;;23.77;;
35795;SDS011;21916;52.428;13.302;2023-02-03T07:09:22;37.15;;;21.88;;
35795;SDS011;21916;52.428;13.302;2023-02-03T07:11:48;39.90;;;23.63;;
35795;SDS011;21916;52.428;13.302;2023-02-03T07:14:14;37.92;;;22.60;;
35795;SDS011;21916;52.428;13.302;2023-02-03T07:16:40;37.72;;;21.48;;
35795;SDS011;21916;52.428;13.302;2023-02-03T07:19:06;44.22;;;23.58;;
35795;SDS011;21916;52.428;13.302;2023-02-03T07:21:32;27.70;;;16.42;;
35795;SDS011;21916;52.428;13.302;2023-02-03T07:23:57;33.65;;;19.35;;
35795;SDS011;21916;52.428;13.302;2023-02-03T07:26:23;34.58;;;19.65;;
35795;SDS011;21916;52.428;13.302;2023-02-03T07:28:50;35.72;;;18.95;;
35795;SDS011;21916;52.428;13.302;2023-02-03T07:31:17;36.08;;;19.25;;
35795;SDS011;21916;52.428;13.302;2023-02-03T07:33:43;32.88;;;18.40;;
35795;SDS011;21916;52.428;13.302;2023-02-03T07:36:12;34.42;;;21.23;;
35795;SDS011;21916;52.428;13.302;2023-02-03T07:38:38;40.00;;;22.65;;
35795;SDS011;21916;52.428;13.302;2023-02-03T07:41:04;31.50;;;17.63;;
35795;SDS011;21916;52.428;13.302;2023-02-03T07:43:33;36.38;;;20.88;;
35795;SDS011;21916;52.428;13.302;2023-02-03T07:45:59;28.55;;;16.95;;
35795;SDS011;21916;52.428;13.302;2023-02-03T07:48:26;25.15;;;14.70;;
35795;SDS011;21916;52.428;13.302;2023-02-03T07:50:52;30.27;;;16.73;;
35795;SDS011;21916;52.428;13.302;2023-02-03T07:53:18;31.73;;;19.70;;
35795;SDS011;21916;52.428;13.302;2023-02-03T07:55:44;23.70;;;14.35;;
35795;SDS011;21916;52.428;13.302;2023-02-03T07:58:10;24.58;;;13.70;;
35795;SDS011;21916;52.428;13.302;2023-02-03T08:00:36;30.38;;;16.70;;
35795;SDS011;21916;52.428;13.302;2023-02-03T08:03:02;36.60;;;17.83;;
35795;SDS011;21916;52.428;13.302;2023-02-03T08:05:29;29.42;;;17.13;;
35795;SDS011;21916;52.428;13.302;2023-02-03T08:07:55;35.03;;;19.35;;
35795;SDS011;21916;52.428;13.302;2023-02-03T08:10:24;27.98;;;16.77;;
35795;SDS011;21916;52.428;13.302;2023-02-03T08:12:53;25.48;;;15.45;;
35795;SDS011;21916;52.428;13.302;2023-02-03T08:15:20;27.48;;;18.10;;
35795;SDS011;21916;52.428;13.302;2023-02-03T08:17:47;27.60;;;14.15;;
35795;SDS011;21916;52.428;13.302;2023-02-03T08:20:14;23.48;;;14.82;;
35795;SDS011;21916;52.428;13.302;2023-02-03T08:22:41;22.77;;;15.07;;
35795;SDS011;21916;52.428;13.302;2023-02-03T08:25:07;28.02;;;14.05;;
35795;SDS011;21916;52.428;13.302;2023-02-03T08:27:33;15.65;;;8.98;;
35795;SDS011;21916;52.428;13.302;2023-02-03T08:29:59;20.70;;;13.00;;
35795;SDS011;21916;52.428;13.302;2023-02-03T08:32:25;20.88;;;12.50;;
35795;SDS011;21916;52.428;13.302;2023-02-03T08:34:51;20.17;;;11.77;;
35795;SDS011;21916;52.428;13.302;2023-02-03T08:37:19;23.80;;;14.80;;
35795;SDS011;21916;52.428;13.302;2023-02-03T08:39:48;14.90;;;10.45;;
35795;SDS011;21916;52.428;13.302;2023-02-03T08:42:15;18.63;;;12.50;;
35795;SDS011;21916;52.428;13.302;2023-02-03T08:44:41;20.73;;;13.35;;
35795;SDS011;21916;52.428;13.302;2023-02-03T08:47:08;22.70;;;13.40;;
35795;SDS011;21916;52.428;13.302;2023-02-03T08:49:35;17.40;;;10.60;;
35795;SDS011;21916;52.428;13.302;2023-02-03T08:52:04;19.05;;;9.13;;
35795;SDS011;21916;52.428;13.302;2023-02-03T08:54:31;15.43;;;10.98;;
35795;SDS011;21916;52.428;13.302;2023-02-03T08:56:57;15.98;;;10.23;;
35795;SDS011;21916;52.428;13.302;2023-02-03T08:59:23;18.10;;;11.38;;
35795;SDS011;21916;52.428;13.302;2023-02-03T09:01:50;17.70;;;12.18;;
35795;SDS011;21916;52.428;13.302;2023-02-03T09:04:17;13.90;;;10.80;;
35795;SDS011;21916;52.428;13.302;2023-02-03T09:06:47;18.23;;;10.80;;
35795;SDS011;21916;52.428;13.302;2023-02-03T09:09:13;20.88;;;10.10;;
35795;SDS011;21916;52.428;13.302;2023-02-03T09:11:40;11.52;;;6.85;;
35795;SDS011;21916;52.428;13.302;2023-02-03T09:14:07;14.82;;;10.32;;
35795;SDS011;21916;52.428;13.302;2023-02-03T09:16:33;14.45;;;8.82;;
35795;SDS011;21916;52.428;13.302;2023-02-03T09:18:59;16.88;;;10.93;;
35795;SDS011;21916;52.428;13.302;2023-02-03T09:21:25;10.20;;;7.57;;
35795;SDS011;21916;52.428;13.302;2023-02-03T09:23:51;10.90;;;7.35;;
35795;SDS011;21916;52.428;13.302;2023-02-03T09:26:17;12.90;;;8.68;;
35795;SDS011;21916;52.428;13.302;2023-02-03T09:28:43;13.48;;;10.38;;
35795;SDS011;21916;52.428;13.302;2023-02-03T09:31:10;11.90;;;7.18;;
35795;SDS011;21916;52.428;13.302;2023-02-03T09:33:37;14.23;;;9.32;;
35795;SDS011;21916;52.428;13.302;2023-02-03T09:36:04;9.30;;;5.88;;
35795;SDS011;21916;52.428;13.302;2023-02-03T09:38:32;12.25;;;7.43;;
35795;SDS011;21916;52.428;13.302;2023-02-03T09:46:25;15.15;;;8.73;;
35795;SDS011;21916;52.428;13.302;2023-02-03T09:49:10;14.93;;;8.52;;
35795;SDS011;21916;52.428;13.302;2023-02-03T09:54:20;13.77;;;7.93;;
35795;SDS011;21916;52.428;13.302;2023-02-03T09:57:17;8.38;;;5.18;;
35795;SDS011;21916;52.428;13.302;2023-02-03T09:59:47;9.73;;;6.82;;
35795;SDS011;21916;52.428;13.302;2023-02-03T10:07:39;8.13;;;4.13;;
35795;SDS011;21916;52.428;13.302;2023-02-03T10:18:31;9.07;;;4.55;;
35795;SDS011;21916;52.428;13.302;2023-02-03T10:21:10;8.73;;;5.28;;
35795;SDS011;21916;52.428;13.302;2023-02-03T10:23:40;8.50;;;5.18;;
35795;SDS011;21916;52.428;13.302;2023-02-03T10:26:22;7.82;;;4.05;;
35795;SDS011;21916;52.428;13.302;2023-02-03T10:29:01;7.25;;;3.33;;
35795;SDS011;21916;52.428;13.302;2023-02-03T10:31:47;9.07;;;3.88;;
35795;SDS011;21916;52.428;13.302;2023-02-03T10:34:14;5.18;;;2.78;;
35795;SDS011;21916;52.428;13.302;2023-02-03T10:36:45;4.10;;;3.20;;
35795;SDS011;21916;52.428;13.302;2023-02-03T10:42:00;7.35;;;3.35;;
35795;SDS011;21916;52.428;13.302;2023-02-03T10:44:30;6.05;;;2.20;;
35795;SDS011;21916;52.428;13.302;2023-02-03T10:49:49;4.15;;;2.80;;
35795;SDS011;21916;52.428;13.302;2023-02-03T10:52:24;8.00;;;3.25;;
35795;SDS011;21916;52.428;13.302;2023-02-03T10:54:52;5.20;;;2.15;;
35795;SDS011;21916;52.428;13.302;2023-02-03T10:57:18;7.25;;;2.80;;
35795;SDS011;21916;52.428;13.302;2023-02-03T10:59:44;5.25;;;2.15;;
35795;SDS011;21916;52.428;13.302;2023-02-03T11:02:22;3.58;;;1.00;;
35795;SDS011;21916;52.428;13.302;2023-02-03T11:07:41;4.05;;;1.15;;
35795;SDS011;21916;52.428;13.302;2023-02-03T11:10:27;4.97;;;1.00;;
35795;SDS011;21916;52.428;13.302;2023-02-03T11:21:05;18.20;;;1.95;;
35795;SDS011;21916;52.428;13.302;2023-02-03T11:24:05;5.57;;;2.08;;
35795;SDS011;21916;52.428;13.302;2023-02-03T11:26:52;11.43;;;2.22;;
35795;SDS011;21916;52.428;13.302;2023-02-03T11:29:29;9.13;;;1.15;;
35795;SDS011;21916;52.428;13.302;2023-02-03T11:35:16;9.15;;;2.17;;
35795;SDS011;21916;52.428;13.302;2023-02-03T11:37:46;8.57;;;1.30;;
35795;SDS011;21916;52.428;13.302;2023-02-03T11:43:12;7.82;;;1.42;;
35795;SDS011;21916;52.428;13.302;2023-02-03T11:50:45;16.50;;;2.40;;
35795;SDS011;21916;52.428;13.302;2023-02-03T11:55:49;14.45;;;2.45;;
35795;SDS011;21916;52.428;13.302;2023-02-03T12:21:38;13.02;;;1.90;;
35795;SDS011;21916;52.428;13.302;2023-02-03T12:30:04;16.23;;;3.75;;
35795;SDS011;21916;52.428;13.302;2023-02-03T12:32:44;14.90;;;2.65;;
35795;SDS011;21916;52.428;13.302;2023-02-03T12:38:07;20.50;;;2.97;;
35795;SDS011;21916;52.428;13.302;2023-02-03T12:40:41;16.85;;;3.47;;
35795;SDS011;21916;52.428;13.302;2023-02-03T12:43:20;22.40;;;4.70;;
35795;SDS011;21916;52.428;13.302;2023-02-03T12:46:18;25.48;;;4.68;;
35795;SDS011;21916;52.428;13.302;2023-02-03T12:48:55;20.02;;;3.83;;
35795;SDS011;21916;52.428;13.302;2023-02-03T12:54:20;17.25;;;3.30;;
35795;SDS011;21916;52.428;13.302;2023-02-03T12:57:10;15.80;;;3.03;;
35795;SDS011;21916;52.428;13.302;2023-02-03T12:59:42;23.25;;;4.30;;
35795;SDS011;21916;52.428;13.302;2023-02-03T13:02:24;18.35;;;3.08;;
35795;SDS011;21916;52.428;13.302;2023-02-03T13:04:53;24.60;;;4.45;;
35795;SDS011;21916;52.428;13.302;2023-02-03T13:07:35;14.10;;;3.30;;
35795;SDS011;21916;52.428;13.302;2023-02-03T13:10:13;19.13;;;3.72;;
35795;SDS011;21916;52.428;13.302;2023-02-03T13:13:00;15.23;;;4.72;;
35795;SDS011;21916;52.428;13.302;2023-02-03T13:15:33;23.20;;;3.47;;
35795;SDS011;21916;52.428;13.302;2023-02-03T13:18:12;19.38;;;3.03;;
35795;SDS011;21916;52.428;13.302;2023-02-03T13:20:55;10.40;;;2.30;;
35795;SDS011;21916;52.428;13.302;2023-02-03T13:23:21;21.08;;;3.00;;
35795;SDS011;21916;52.428;13.302;2023-02-03T13:28:32;11.32;;;2.08;;
35795;SDS011;21916;52.428;13.302;2023-02-03T13:31:20;10.70;;;1.83;;
35795;SDS011;21916;52.428;13.302;2023-02-03T13:36:52;11.60;;;2.83;;
35795;SDS011;21916;52.428;13.302;2023-02-03T13:42:24;23.23;;;4.38;;
35795;SDS011;21916;52.428;13.302;2023-02-03T13:45:01;10.07;;;2.65;;
35795;SDS011;21916;52.428;13.302;2023-02-03T13:47:44;9.10;;;2.03;;
35795;SDS011;21916;52.428;13.302;2023-02-03T13:50:18;11.07;;;1.60;;
35795;SDS011;21916;52.428;13.302;2023-02-03T13:52:58;13.55;;;2.50;;
35795;SDS011;21916;52.428;13.302;2023-02-03T13:55:34;16.77;;;3.08;;
35795;SDS011;21916;52.428;13.302;2023-02-03T13:58:04;13.20;;;2.22;;
35795;SDS011;21916;52.428;13.302;2023-02-03T14:05:49;8.93;;;2.08;;
35795;SDS011;21916;52.428;13.302;2023-02-03T14:21:47;12.75;;;2.38;;
35795;SDS011;21916;52.428;13.302;2023-02-03T14:24:18;13.43;;;3.33;;
35795;SDS011;21916;52.428;13.302;2023-02-03T14:26:52;18.17;;;3.50;;
35795;SDS011;21916;52.428;13.302;2023-02-03T14:29:26;22.67;;;3.10;;
35795;SDS011;21916;52.428;13.302;2023-02-03T14:34:28;13.88;;;3.70;;
35795;SDS011;21916;52.428;13.302;2023-02-03T14:37:12;8.05;;;2.42;;
35795;SDS011;21916;52.428;13.302;2023-02-03T14:51:44;16.35;;;3.63;;
35795;SDS011;21916;52.428;13.302;2023-02-03T15:02:27;22.88;;;4.80;;
35795;SDS011;21916;52.428;13.302;2023-02-03T15:10:15;23.02;;;4.22;;
35795;SDS011;21916;52.428;13.302;2023-02-03T15:12:47;21.05;;;5.68;;
35795;SDS011;21916;52.428;13.302;2023-02-03T15:15:25;26.67;;;4.32;;
35795;SDS011;21916;52.428;13.302;2023-02-03T15:17:54;22.25;;;3.90;;
35795;SDS011;21916;52.428;13.302;2023-02-03T15:23:00;19.23;;;3.60;;
35795;SDS011;21916;52.428;13.302;2023-02-03T15:25:29;15.85;;;3.67;;
35795;SDS011;21916;52.428;13.302;2023-02-03T15:28:11;16.85;;;3.72;;
35795;SDS011;21916;52.428;13.302;2023-02-03T15:30:45;17.40;;;3.28;;
35795;SDS011;21916;52.428;13.302;2023-02-03T15:33:14;19.42;;;5.10;;
35795;SDS011;21916;52.428;13.302;2023-02-03T15:35:44;12.57;;;2.42;;
35795;SDS011;21916;52.428;13.302;2023-02-03T15:38:14;13.23;;;2.83;;
35795;SDS011;21916;52.428;13.302;2023-02-03T15:40:50;25.52;;;3.53;;
35795;SDS011;21916;52.428;13.302;2023-02-03T15:43:32;12.63;;;3.53;;
35795;SDS011;21916;52.428;13.302;2023-02-03T15:54:11;15.82;;;3.05;;
35795;SDS011;21916;52.428;13.302;2023-02-03T15:56:48;15.15;;;3.38;;
35795;SDS011;21916;52.428;13.302;2023-02-03T15:59:25;17.65;;;3.40;;
35795;SDS011;21916;52.428;13.302;2023-02-03T16:02:06;15.95;;;3.13;;
35795;SDS011;21916;52.428;13.302;2023-02-03T16:04:45;11.93;;;2.10;;
35795;SDS011;21916;52.428;13.302;2023-02-03T16:07:16;17.33;;;4.47;;
35795;SDS011;21916;52.428;13.302;2023-02-03T16:09:45;13.02;;;2.95;;
35795;SDS011;21916;52.428;13.302;2023-02-03T16:12:21;16.60;;;3.00;;
35795;SDS011;21916;52.428;13.302;2023-02-03T16:14:47;16.00;;;3.17;;
35795;SDS011;21916;52.428;13.302;2023-02-03T16:19:49;20.58;;;3.50;;
35795;SDS011;21916;52.428;13.302;2023-02-03T16:22:25;21.17;;;3.22;;
35795;SDS011;21916;52.428;13.302;2023-02-03T16:27:55;22.27;;;4.03;;
35795;SDS011;21916;52.428;13.302;2023-02-03T16:31:36;21.23;;;2.88;;
35795;SDS011;21916;52.428;13.302;2023-02-03T16:34:08;18.67;;;3.75;;
35795;SDS011;21916;52.428;13.302;2023-02-03T16:36:56;20.30;;;3.40;;
35795;SDS011;21916;52.428;13.302;2023-02-03T16:39:41;13.77;;;5.05;;
35795;SDS011;21916;52.428;13.302;2023-02-03T16:42:28;22.13;;;4.95;;
35795;SDS011;21916;52.428;13.302;2023-02-03T16:45:21;24.65;;;4.03;;
35795;SDS011;21916;52.428;13.302;2023-02-03T16:48:07;16.50;;;3.58;;
35795;SDS011;21916;52.428;13.302;2023-02-03T16:50:53;17.33;;;3.88;;
35795;SDS011;21916;52.428;13.302;2023-02-03T16:53:23;21.27;;;4.60;;
35795;SDS011;21916;52.428;13.302;2023-02-03T16:55:55;15.77;;;3.78;;
35795;SDS011;21916;52.428;13.302;2023-02-03T16:58:23;28.92;;;4.30;;
35795;SDS011;21916;52.428;13.302;2023-02-03T17:00:50;23.70;;;4.65;;
35795;SDS011;21916;52.428;13.302;2023-02-03T17:03:18;12.95;;;2.95;;
35795;SDS011;21916;52.428;13.302;2023-02-03T17:05:46;18.83;;;3.80;;
35795;SDS011;21916;52.428;13.302;2023-02-03T17:08:14;21.67;;;3.28;;
35795;SDS011;21916;52.428;13.302;2023-02-03T17:10:41;18.55;;;4.35;;
35795;SDS011;21916;52.428;13.302;2023-02-03T17:13:09;16.40;;;3.70;;
35795;SDS011;21916;52.428;13.302;2023-02-03T17:15:39;20.55;;;3.53;;
35795;SDS011;21916;52.428;13.302;2023-02-03T17:18:06;27.88;;;5.53;;
35795;SDS011;21916;52.428;13.302;2023-02-03T17:20:33;17.00;;;3.17;;
35795;SDS011;21916;52.428;13.302;2023-02-03T17:22:59;32.30;;;5.57;;
35795;SDS011;21916;52.428;13.302;2023-02-03T17:25:25;27.90;;;3.45;;
35795;SDS011;21916;52.428;13.302;2023-02-03T17:27:51;19.95;;;4.38;;
35795;SDS011;21916;52.428;13.302;2023-02-03T17:30:17;13.40;;;3.50;;
35795;SDS011;21916;52.428;13.302;2023-02-03T17:32:43;25.17;;;2.92;;
35795;SDS011;21916;52.428;13.302;2023-02-03T17:35:09;17.80;;;3.38;;
35795;SDS011;21916;52.428;13.302;2023-02-03T17:37:35;25.55;;;3.78;;
35795;SDS011;21916;52.428;13.302;2023-02-03T17:40:01;24.83;;;4.53;;
35795;SDS011;21916;52.428;13.302;2023-02-03T17:42:28;22.23;;;3.60;;
35795;SDS011;21916;52.428;13.302;2023-02-03T17:44:54;24.23;;;3.58;;
35795;SDS011;21916;52.428;13.302;2023-02-03T17:47:19;30.85;;;5.32;;
35795;SDS011;21916;52.428;13.302;2023-02-03T17:49:45;22.13;;;5.45;;